createdAt,value
2019-05-06T00:02:07.969Z,78.28
2019-05-06T00:04:34.602Z,78.23
2019-05-06T00:07:01.247Z,78.38
2019-05-06T00:09:27.884Z,78.25
2019-05-06T00:11:54.685Z,78.01
2019-05-06T00:14:23.433Z,77.97
2019-05-06T00:16:49.869Z,78.12
2019-05-06T00:19:16.496Z,78.03
2019-05-06T00:21:44.318Z,77.68
2019-05-06T00:24:11.171Z,77.81
2019-05-06T00:26:54.985Z,77.78
2019-05-06T00:29:24.209Z,77.86
2019-05-06T00:31:51.105Z,77.81
2019-05-06T00:34:17.713Z,77.96
2019-05-06T00:36:44.439Z,78.06
2019-05-06T00:39:24.222Z,78.03
2019-05-06T00:41:57.053Z,77.98
2019-05-06T00:44:23.922Z,77.77
2019-05-06T00:46:50.734Z,77.95
2019-05-06T00:49:17.337Z,78.10
2019-05-06T00:51:44.042Z,78.22
2019-05-06T00:54:16.749Z,78.33
2019-05-06T00:56:44.740Z,78.37
2019-05-06T00:59:11.515Z,78.22
2019-05-06T01:01:38.251Z,78.58
2019-05-06T01:04:04.866Z,78.59
2019-05-06T01:06:31.527Z,78.63
2019-05-06T01:08:58.133Z,78.76
2019-05-06T01:11:24.801Z,78.73
2019-05-06T01:14:05.060Z,78.38
2019-05-06T01:16:31.688Z,78.57
2019-05-06T01:18:58.305Z,78.62
2019-05-06T01:21:24.939Z,78.71
2019-05-06T01:23:51.678Z,78.69
2019-05-06T01:26:18.284Z,78.58
2019-05-06T01:28:45.324Z,78.50
2019-05-06T01:31:13.846Z,78.49
2019-05-06T01:33:40.459Z,78.34
2019-05-06T01:36:07.065Z,78.25
2019-05-06T01:38:40.412Z,78.21
2019-05-06T01:41:25.469Z,78.02
2019-05-06T01:43:52.120Z,78.15
2019-05-06T01:46:18.828Z,78.14
2019-05-06T01:48:48.283Z,78.06
2019-05-06T01:51:15.596Z,77.86
2019-05-06T01:53:42.232Z,77.84
2019-05-06T01:56:08.846Z,77.94
2019-05-06T01:58:35.444Z,77.68
2019-05-06T02:01:03.952Z,77.80
2019-05-06T02:03:30.588Z,77.69
2019-05-06T02:05:57.318Z,77.64
2019-05-06T02:08:24.437Z,77.55
2019-05-06T02:10:51.286Z,77.39
2019-05-06T02:13:18.011Z,77.23
2019-05-06T02:15:44.972Z,77.31
2019-05-06T02:18:13.466Z,77.45
2019-05-06T02:20:41.490Z,77.58
2019-05-06T02:23:19.986Z,77.59
2019-05-06T02:25:49.463Z,77.51
2019-05-06T02:28:16.103Z,77.23
2019-05-06T02:30:50.299Z,77.28
2019-05-06T02:33:35.703Z,77.39
2019-05-06T02:36:14.940Z,77.29
2019-05-06T02:38:50.600Z,77.66
2019-05-06T02:41:09.475Z,77.29
2019-05-06T02:43:36.518Z,77.29
2019-05-06T02:46:04.184Z,77.22
2019-05-06T02:48:50.744Z,76.62
2019-05-06T02:51:19.849Z,76.79
2019-05-06T02:53:46.473Z,76.65
2019-05-06T02:56:13.483Z,76.53
2019-05-06T02:58:40.310Z,76.14
2019-05-06T03:01:06.956Z,76.53
2019-05-06T03:03:34.059Z,76.39
2019-05-06T03:06:03.531Z,76.21
2019-05-06T03:08:29.416Z,76.30
2019-05-06T03:10:56.141Z,76.21
2019-05-06T03:13:23.746Z,76.21
2019-05-06T03:15:53.770Z,76.21
2019-05-06T03:18:19.329Z,76.45
2019-05-06T03:21:09.783Z,76.39
2019-05-06T03:23:39.020Z,76.64
2019-05-06T03:26:06.495Z,76.47
2019-05-06T03:28:33.878Z,76.35
2019-05-06T03:31:05.927Z,76.30
2019-05-06T03:33:47.218Z,76.44
2019-05-06T03:36:07.496Z,76.58
2019-05-06T03:38:26.119Z,76.38
2019-05-06T03:40:53.775Z,76.71
2019-05-06T03:43:23.272Z,76.92
2019-05-06T03:46:23.228Z,76.91
2019-05-06T03:48:53.035Z,76.87
2019-05-06T03:51:23.082Z,76.65
2019-05-06T03:53:48.465Z,76.34
2019-05-06T03:56:19.480Z,76.57
2019-05-06T03:58:43.823Z,76.74
2019-05-06T04:01:13.202Z,76.97
2019-05-06T04:03:47.133Z,76.82
2019-05-06T04:06:07.608Z,76.94
2019-05-06T04:08:34.522Z,76.98
2019-05-06T04:11:03.158Z,76.95
2019-05-06T04:13:32.982Z,76.62
2019-05-06T04:16:14.195Z,76.81
2019-05-06T04:18:43.958Z,76.84
2019-05-06T04:21:16.912Z,76.24
2019-05-06T04:24:04.482Z,76.49
2019-05-06T04:26:46.161Z,76.44
2019-05-06T04:29:09.475Z,76.42
2019-05-06T04:31:36.185Z,76.32
2019-05-06T04:34:12.885Z,76.47
2019-05-06T04:36:33.735Z,76.20
2019-05-06T04:38:59.887Z,76.16
2019-05-06T04:41:27.005Z,76.11
2019-05-06T04:43:53.719Z,76.04
2019-05-06T04:46:23.406Z,75.90
2019-05-06T04:48:48.871Z,75.10
2019-05-06T04:51:15.526Z,75.07
2019-05-06T04:53:44.100Z,75.08
2019-05-06T04:56:14.120Z,74.79
2019-05-06T04:58:39.325Z,74.83
2019-05-06T05:01:06.055Z,74.34
2019-05-06T05:03:33.561Z,74.04
2019-05-06T05:06:03.054Z,77.55
2019-05-06T05:08:47.126Z,80.37
2019-05-06T05:11:23.165Z,77.46
2019-05-06T05:14:02.627Z,76.02
2019-05-06T05:16:49.553Z,74.17
2019-05-06T05:19:16.184Z,72.54
2019-05-06T05:21:42.963Z,68.58
2019-05-06T05:24:09.623Z,67.62
2019-05-06T05:26:36.407Z,68.27
2019-05-06T05:29:03.070Z,67.06
2019-05-06T05:31:29.795Z,67.77
2019-05-06T05:33:56.435Z,67.08
2019-05-06T05:36:23.244Z,66.52
2019-05-06T05:38:52.082Z,67.50
2019-05-06T05:41:18.802Z,67.16
2019-05-06T05:44:02.415Z,64.53
2019-05-06T05:46:29.220Z,66.56
2019-05-06T05:49:13.988Z,69.96
2019-05-06T05:51:42.470Z,67.96
2019-05-06T05:54:09.211Z,67.39
2019-05-06T05:56:35.848Z,64.71
2019-05-06T05:59:03.348Z,62.91
2019-05-06T06:01:32.471Z,62.10
2019-05-06T06:03:58.760Z,63.39
2019-05-06T06:06:25.484Z,63.67
2019-05-06T06:08:52.456Z,63.84
2019-05-06T06:11:36.684Z,62.95
2019-05-06T06:14:07.625Z,64.17
2019-05-06T06:17:01.887Z,64.35
2019-05-06T06:19:36.910Z,65.65
2019-05-06T06:22:07.338Z,65.92
2019-05-06T06:24:35.280Z,65.50
2019-05-06T06:27:03.130Z,65.66
2019-05-06T06:29:32.234Z,65.57
2019-05-06T06:32:23.065Z,64.95
2019-05-06T06:35:08.324Z,65.37
2019-05-06T06:37:43.848Z,65.56
2019-05-06T06:40:13.101Z,64.67
2019-05-06T06:42:39.863Z,64.95
2019-05-06T06:45:06.615Z,64.46
2019-05-06T06:47:33.345Z,65.63
2019-05-06T06:49:59.989Z,65.62
2019-05-06T06:52:26.582Z,65.06
2019-05-06T06:54:53.230Z,65.03
2019-05-06T06:57:35.166Z,63.53
2019-05-06T07:00:08.962Z,63.46
2019-05-06T07:02:57.876Z,64.20
2019-05-06T07:05:33.308Z,63.71
2019-05-06T07:08:02.047Z,63.80
2019-05-06T07:10:43.676Z,62.94
2019-05-06T07:13:12.142Z,61.77
2019-05-06T07:15:39.056Z,62.38
2019-05-06T07:18:05.665Z,62.14
2019-05-06T07:20:36.933Z,60.93
2019-05-06T07:23:22.695Z,60.69
2019-05-06T07:25:49.339Z,59.88
2019-05-06T07:28:15.985Z,58.68
2019-05-06T07:30:42.743Z,59.61
2019-05-06T07:33:09.371Z,58.36
2019-05-06T07:35:40.516Z,58.47
2019-05-06T07:38:04.655Z,59.12
2019-05-06T07:40:32.676Z,58.72
2019-05-06T07:43:02.295Z,58.70
2019-05-06T07:45:36.191Z,58.98
2019-05-06T07:48:08.611Z,58.92
2019-05-06T07:50:35.239Z,58.77
2019-05-06T07:53:13.146Z,59.42
2019-05-06T07:55:39.439Z,61.57
2019-05-06T07:58:06.075Z,59.80
2019-05-06T08:00:32.954Z,56.82
2019-05-06T08:03:02.305Z,55.52
2019-05-06T08:05:28.157Z,53.92
2019-05-06T08:07:55.186Z,54.84
2019-05-06T08:10:24.011Z,54.25
2019-05-06T08:12:52.678Z,54.15
2019-05-06T08:15:19.316Z,52.67
2019-05-06T08:17:45.987Z,52.99
2019-05-06T08:20:13.027Z,53.15
2019-05-06T08:22:52.958Z,53.18
2019-05-06T08:25:23.598Z,53.38
2019-05-06T08:27:50.230Z,53.44
2019-05-06T08:30:17.052Z,49.65
2019-05-06T08:32:43.775Z,50.40
2019-05-06T08:35:10.401Z,48.86
2019-05-06T08:37:37.374Z,49.20
2019-05-06T08:40:04.206Z,47.17
2019-05-06T08:42:32.781Z,49.13
2019-05-06T08:44:59.399Z,47.15
2019-05-06T08:47:26.130Z,45.74
2019-05-06T08:50:21.841Z,46.91
2019-05-06T08:53:13.601Z,47.74
2019-05-06T08:55:41.966Z,46.80
2019-05-06T08:58:08.776Z,45.07
2019-05-06T09:00:42.781Z,44.21
2019-05-06T09:03:09.148Z,44.72
2019-05-06T09:05:35.804Z,44.59
2019-05-06T09:08:03.662Z,44.45
2019-05-06T09:10:32.482Z,42.68
2019-05-06T09:12:59.132Z,42.45
2019-05-06T09:15:25.789Z,43.49
2019-05-06T09:17:52.694Z,43.70
2019-05-06T09:20:19.446Z,44.98
2019-05-06T09:22:46.059Z,42.79
2019-05-06T09:25:12.913Z,44.32
2019-05-06T09:27:58.149Z,42.92
2019-05-06T09:30:32.968Z,42.18
2019-05-06T09:32:59.405Z,42.12
2019-05-06T09:35:26.048Z,43.10
2019-05-06T09:37:53.436Z,43.58
2019-05-06T09:40:25.247Z,44.43
2019-05-06T09:42:52.181Z,43.75
2019-05-06T09:45:19.011Z,43.34
2019-05-06T09:47:52.945Z,43.63
2019-05-06T09:50:32.351Z,44.17
2019-05-06T09:52:58.945Z,43.05
2019-05-06T09:55:47.901Z,43.39
2019-05-06T09:58:14.615Z,41.82
2019-05-06T10:00:43.715Z,42.81
2019-05-06T10:03:10.529Z,44.45
2019-05-06T10:05:37.221Z,43.25
2019-05-06T10:08:03.961Z,43.34
2019-05-06T10:10:32.629Z,44.37
2019-05-06T10:12:59.143Z,42.70
2019-05-06T10:15:25.870Z,44.74
2019-05-06T10:18:07.899Z,43.22
2019-05-06T10:20:42.644Z,41.83
2019-05-06T10:23:09.743Z,41.42
2019-05-06T10:25:37.479Z,42.36
2019-05-06T10:28:07.442Z,40.81
2019-05-06T10:30:34.055Z,40.69
2019-05-06T10:33:02.128Z,39.95
2019-05-06T10:35:29.676Z,40.10
2019-05-06T10:38:15.262Z,39.31
2019-05-06T10:40:57.270Z,39.02
2019-05-06T10:43:23.274Z,39.09
2019-05-06T10:45:51.904Z,39.47
2019-05-06T10:48:18.475Z,39.19
2019-05-06T10:50:48.951Z,38.22
2019-05-06T10:53:20.953Z,38.88
2019-05-06T10:55:53.078Z,40.83
2019-05-06T10:58:19.204Z,38.78
2019-05-06T11:00:46.647Z,37.74
2019-05-06T11:03:16.030Z,37.21
2019-05-06T11:05:43.279Z,38.04
2019-05-06T11:08:10.120Z,38.75
2019-05-06T11:10:41.190Z,40.14
2019-05-06T11:13:05.752Z,41.17
2019-05-06T11:15:33.049Z,40.75
2019-05-06T11:18:04.081Z,41.58
2019-05-06T11:20:28.385Z,40.65
2019-05-06T11:22:55.102Z,40.96
2019-05-06T11:25:23.720Z,40.23
2019-05-06T11:27:52.655Z,39.82
2019-05-06T11:30:47.878Z,41.01
2019-05-06T11:33:42.339Z,40.14
2019-05-06T11:36:15.263Z,40.08
2019-05-06T11:38:43.186Z,39.74
2019-05-06T11:41:12.992Z,38.92
2019-05-06T11:43:38.511Z,39.25
2019-05-06T11:46:05.179Z,39.06
2019-05-06T11:48:32.800Z,37.53
2019-05-06T11:51:01.706Z,38.33
2019-05-06T11:53:28.435Z,37.48
2019-05-06T11:55:55.251Z,36.19
2019-05-06T11:58:42.721Z,35.92
2019-05-06T12:01:14.253Z,33.15
2019-05-06T12:03:42.667Z,33.21
2019-05-06T12:06:09.500Z,33.81
2019-05-06T12:08:36.131Z,34.63
2019-05-06T12:11:03.053Z,35.82
2019-05-06T12:13:29.809Z,35.32
2019-05-06T12:15:56.521Z,34.56
2019-05-06T12:18:23.218Z,33.98
2019-05-06T12:20:52.602Z,34.94
2019-05-06T12:23:18.497Z,34.46
2019-05-06T12:25:46.072Z,34.98
2019-05-06T12:28:13.074Z,35.91
2019-05-06T12:30:39.942Z,37.40
2019-05-06T12:33:34.825Z,37.75
2019-05-06T12:36:04.415Z,39.02
2019-05-06T12:38:32.859Z,39.58
2019-05-06T12:41:00.096Z,41.25
2019-05-06T12:43:43.106Z,41.39
2019-05-06T12:46:16.920Z,41.82
2019-05-06T12:48:44.132Z,43.29
2019-05-06T12:51:10.918Z,42.84
2019-05-06T12:53:37.566Z,42.33
2019-05-06T12:56:04.194Z,42.53
2019-05-06T12:58:30.916Z,42.25
2019-05-06T13:00:57.555Z,41.65
2019-05-06T13:03:24.278Z,41.56
2019-05-06T13:05:52.116Z,40.64
2019-05-06T13:08:21.077Z,41.01
2019-05-06T13:10:47.505Z,39.50
2019-05-06T13:13:14.142Z,39.99
2019-05-06T13:15:43.244Z,39.52
2019-05-06T13:18:09.333Z,39.39
2019-05-06T13:20:36.103Z,39.07
2019-05-06T13:23:25.787Z,39.17
2019-05-06T13:25:52.761Z,38.95
2019-05-06T13:28:22.427Z,39.48
2019-05-06T13:30:48.992Z,41.29
2019-05-06T13:33:36.389Z,40.38
2019-05-06T13:36:03.130Z,40.69
2019-05-06T13:38:31.976Z,40.93
2019-05-06T13:40:58.338Z,40.01
2019-05-06T13:43:44.572Z,40.80
2019-05-06T13:46:23.502Z,41.23
2019-05-06T13:49:10.002Z,41.46
2019-05-06T13:51:37.307Z,40.99
2019-05-06T13:54:03.915Z,39.77
2019-05-06T13:56:32.728Z,40.06
2019-05-06T13:58:59.109Z,40.35
2019-05-06T14:01:27.605Z,40.87
2019-05-06T14:03:54.400Z,40.88
2019-05-06T14:06:21.137Z,42.68
2019-05-06T14:08:47.793Z,43.35
2019-05-06T14:11:14.526Z,44.49
2019-05-06T14:13:42.222Z,45.22
2019-05-06T14:16:09.130Z,45.03
2019-05-06T14:18:37.673Z,45.33
2019-05-06T14:21:04.348Z,45.60
2019-05-06T14:23:32.701Z,45.70
2019-05-06T14:26:19.256Z,46.15
2019-05-06T14:28:58.800Z,44.27
2019-05-06T14:31:28.024Z,43.57
2019-05-06T14:33:54.742Z,42.37
2019-05-06T14:36:22.879Z,42.50
2019-05-06T14:38:49.758Z,42.94
2019-05-06T14:41:19.016Z,42.65
2019-05-06T14:43:45.737Z,42.50
2019-05-06T14:46:12.507Z,42.01
2019-05-06T14:48:39.218Z,40.93
2019-05-06T14:51:05.878Z,37.94
2019-05-06T14:53:33.266Z,38.67
2019-05-06T14:56:03.756Z,38.41
2019-05-06T14:58:32.123Z,37.60
2019-05-06T15:00:58.937Z,37.61
2019-05-06T15:03:25.539Z,38.33
2019-05-06T15:05:52.230Z,38.60
2019-05-06T15:08:18.946Z,38.72
2019-05-06T15:10:45.608Z,37.13
2019-05-06T15:13:12.677Z,37.35
2019-05-06T15:15:39.475Z,36.90
2019-05-06T15:18:06.218Z,37.12
2019-05-06T15:20:34.260Z,35.57
2019-05-06T15:23:04.356Z,34.35
2019-05-06T15:25:29.421Z,32.09
2019-05-06T15:27:56.170Z,33.81
2019-05-06T15:30:33.485Z,34.40
2019-05-06T15:33:02.389Z,34.38
2019-05-06T15:35:47.905Z,34.33
2019-05-06T15:38:18.956Z,34.96
2019-05-06T15:40:45.569Z,35.56
2019-05-06T15:43:12.759Z,36.42
2019-05-06T15:45:39.544Z,35.45
2019-05-06T15:48:06.211Z,32.91
2019-05-06T15:50:32.989Z,32.21
2019-05-06T15:53:01.808Z,31.63
2019-05-06T15:55:28.329Z,32.14
2019-05-06T15:57:54.963Z,35.07
2019-05-06T16:00:22.584Z,36.73
2019-05-06T16:02:49.558Z,37.04
2019-05-06T16:05:20.097Z,37.85
2019-05-06T16:07:44.730Z,39.02
2019-05-06T16:10:13.278Z,39.83
2019-05-06T16:12:41.851Z,40.56
2019-05-06T16:15:08.774Z,40.72
2019-05-06T16:17:35.420Z,41.38
2019-05-06T16:20:02.778Z,41.32
2019-05-06T16:22:29.603Z,41.08
2019-05-06T16:25:02.632Z,41.02
2019-05-06T16:27:29.624Z,41.69
2019-05-06T16:29:56.386Z,40.48
2019-05-06T16:32:23.218Z,40.59
2019-05-06T16:34:49.923Z,40.46
2019-05-06T16:37:16.563Z,40.42
2019-05-06T16:39:43.310Z,40.09
2019-05-06T16:42:12.856Z,41.89
2019-05-06T16:44:39.278Z,41.77
2019-05-06T16:47:06.019Z,41.88
2019-05-06T16:49:33.598Z,42.80
2019-05-06T16:52:02.504Z,43.03
2019-05-06T16:54:29.411Z,43.33
2019-05-06T16:57:10.645Z,43.23
2019-05-06T16:59:37.315Z,42.92
2019-05-06T17:02:13.781Z,42.69
2019-05-06T17:04:56.781Z,42.77
2019-05-06T17:07:23.430Z,43.47
2019-05-06T17:09:52.478Z,43.07
2019-05-06T17:12:18.633Z,43.39
2019-05-06T17:14:45.370Z,44.47
2019-05-06T17:17:12.021Z,44.50
2019-05-06T17:19:38.763Z,43.71
2019-05-06T17:22:05.410Z,43.92
2019-05-06T17:24:33.023Z,43.56
2019-05-06T17:26:59.925Z,44.60
2019-05-06T17:29:44.904Z,44.44
2019-05-06T17:32:32.827Z,44.11
2019-05-06T17:34:59.248Z,44.19
2019-05-06T17:38:03.603Z,44.88
2019-05-06T17:40:32.209Z,45.09
2019-05-06T17:42:58.959Z,46.00
2019-05-06T17:45:57.986Z,45.20
2019-05-06T17:48:19.378Z,45.31
2019-05-06T17:51:05.562Z,45.56
2019-05-06T17:53:34.323Z,46.11
2019-05-06T17:56:01.835Z,46.64
2019-05-06T17:58:28.580Z,46.69
2019-05-06T18:00:55.219Z,46.91
2019-05-06T18:03:21.996Z,47.78
2019-05-06T18:05:48.695Z,47.95
2019-05-06T18:08:15.453Z,49.32
2019-05-06T18:10:42.714Z,48.86
2019-05-06T18:13:09.657Z,49.47
2019-05-06T18:15:36.410Z,50.02
2019-05-06T18:18:03.137Z,50.42
2019-05-06T18:20:29.887Z,50.88
2019-05-06T18:22:56.575Z,51.18
2019-05-06T18:25:25.269Z,51.30
2019-05-06T18:27:52.650Z,51.15
2019-05-06T18:30:24.872Z,54.88
2019-05-06T18:32:48.050Z,53.28
2019-05-06T18:35:14.719Z,53.66
2019-05-06T18:37:42.631Z,53.64
2019-05-06T18:40:09.387Z,54.74
2019-05-06T18:42:36.127Z,55.82
2019-05-06T18:45:02.899Z,52.76
2019-05-06T18:47:29.627Z,54.25
2019-05-06T18:49:56.381Z,53.36
2019-05-06T18:52:23.506Z,53.79
2019-05-06T18:54:52.286Z,53.69
2019-05-06T18:57:18.693Z,54.25
2019-05-06T18:59:45.359Z,54.68
2019-05-06T19:02:13.098Z,55.46
2019-05-06T19:04:52.141Z,55.47
2019-05-06T19:07:18.498Z,54.87
2019-05-06T19:09:52.204Z,55.14
2019-05-06T19:12:30.273Z,55.83
2019-05-06T19:14:47.130Z,55.82
2019-05-06T19:17:13.854Z,56.23
2019-05-06T19:19:42.559Z,56.68
2019-05-06T19:22:09.157Z,56.66
2019-05-06T19:24:35.795Z,56.98
2019-05-06T19:27:02.529Z,57.21
2019-05-06T19:29:29.260Z,57.23
2019-05-06T19:31:55.905Z,57.47
2019-05-06T19:34:23.571Z,57.64
2019-05-06T19:36:52.690Z,58.00
2019-05-06T19:39:19.049Z,58.17
2019-05-06T19:41:45.798Z,58.38
2019-05-06T19:44:12.906Z,58.99
2019-05-06T19:46:39.791Z,59.06
2019-05-06T19:49:06.452Z,59.27
2019-05-06T19:51:33.179Z,59.37
2019-05-06T19:54:02.087Z,59.48
2019-05-06T19:56:28.383Z,59.21
2019-05-06T19:58:55.111Z,59.29
2019-05-06T20:01:22.850Z,59.03
2019-05-06T20:03:49.670Z,59.18
2019-05-06T20:06:38.839Z,59.36
2019-05-06T20:09:42.533Z,59.85
2019-05-06T20:12:14.365Z,60.08
2019-05-06T20:14:41.852Z,60.06
2019-05-06T20:17:08.736Z,60.27
2019-05-06T20:19:35.438Z,60.16
2019-05-06T20:22:02.118Z,59.90
2019-05-06T20:24:28.808Z,59.94
2019-05-06T20:26:55.439Z,59.60
2019-05-06T20:29:22.533Z,59.45
2019-05-06T20:31:49.414Z,59.67
2019-05-06T20:34:16.034Z,59.79
2019-05-06T20:36:42.697Z,59.53
2019-05-06T20:39:09.312Z,59.45
2019-05-06T20:41:35.915Z,59.72
2019-05-06T20:44:02.844Z,59.91
2019-05-06T20:46:29.571Z,59.96
2019-05-06T20:48:56.340Z,60.00
2019-05-06T20:51:23.074Z,60.21
2019-05-06T20:53:49.702Z,60.18
2019-05-06T20:56:16.325Z,60.04
2019-05-06T20:58:42.995Z,60.49
2019-05-06T21:01:09.707Z,60.26
2019-05-06T21:03:36.338Z,60.55
2019-05-06T21:06:02.959Z,60.86
2019-05-06T21:08:29.655Z,61.09
2019-05-06T21:10:56.258Z,60.88
2019-05-06T21:13:31.873Z,60.64
2019-05-06T21:15:51.467Z,60.94
2019-05-06T21:18:18.137Z,60.93
2019-05-06T21:20:44.788Z,60.92
2019-05-06T21:23:11.518Z,60.77
2019-05-06T21:25:38.235Z,61.02
2019-05-06T21:28:04.948Z,60.87
2019-05-06T21:30:32.307Z,61.00
2019-05-06T21:32:59.245Z,60.89
2019-05-06T21:35:25.996Z,61.19
2019-05-06T21:37:53.002Z,61.34
2019-05-06T21:40:24.228Z,61.47
2019-05-06T21:42:50.953Z,61.46
2019-05-06T21:45:17.699Z,61.48
2019-05-06T21:47:46.412Z,61.59
2019-05-06T21:50:12.861Z,61.61
2019-05-06T21:52:39.954Z,61.50
2019-05-06T21:55:07.699Z,61.71
2019-05-06T21:57:34.338Z,61.80
2019-05-06T22:00:02.634Z,62.01
2019-05-06T22:02:29.458Z,61.90
2019-05-06T22:04:56.071Z,62.15
2019-05-06T22:07:22.967Z,62.33
2019-05-06T22:09:49.717Z,62.70
2019-05-06T22:12:16.377Z,62.75
2019-05-06T22:14:42.996Z,62.74
2019-05-06T22:17:09.631Z,62.87
2019-05-06T22:19:36.261Z,62.99
2019-05-06T22:22:07.724Z,63.16
2019-05-06T22:24:42.775Z,63.36
2019-05-06T22:27:09.663Z,63.51
2019-05-06T22:29:36.284Z,63.55
2019-05-06T22:32:03.014Z,63.51
2019-05-06T22:34:29.635Z,63.57
2019-05-06T22:36:56.365Z,63.30
2019-05-06T22:39:22.978Z,63.60
2019-05-06T22:41:51.483Z,63.50
2019-05-06T22:44:18.144Z,63.60
2019-05-06T22:46:44.780Z,63.64
2019-05-06T22:49:13.348Z,63.46
2019-05-06T22:51:39.932Z,63.21
2019-05-06T22:54:06.635Z,63.17
2019-05-06T22:56:33.257Z,62.99
2019-05-06T22:58:59.918Z,62.88
2019-05-06T23:01:43.189Z,62.87
2019-05-06T23:04:10.666Z,62.66
2019-05-06T23:06:37.312Z,62.79
2019-05-06T23:09:05.083Z,62.56
2019-05-06T23:11:32.774Z,62.68
2019-05-06T23:13:59.854Z,62.40
2019-05-06T23:16:26.557Z,62.65
2019-05-06T23:18:53.192Z,62.42
2019-05-06T23:21:19.803Z,62.56
2019-05-06T23:23:48.409Z,62.47
2019-05-06T23:26:19.799Z,62.42
2019-05-06T23:28:46.549Z,62.66
2019-05-06T23:31:13.179Z,62.80
2019-05-06T23:33:42.755Z,62.96
2019-05-06T23:36:09.073Z,62.88
2019-05-06T23:38:53.812Z,62.89
2019-05-06T23:41:38.863Z,62.51
2019-05-06T23:44:23.824Z,62.84
2019-05-06T23:47:09.145Z,62.93
2019-05-06T23:49:54.192Z,63.00
2019-05-06T23:52:39.168Z,62.99
2019-05-06T23:55:24.430Z,63.26
2019-05-06T23:57:52.540Z,63.28
